createdAt,value
2023-02-06T00:00:52.529Z,7.40
2023-02-06T00:03:20.135Z,6.88
2023-02-06T00:05:57.001Z,7.55
2023-02-06T00:08:23.940Z,8.20
2023-02-06T00:10:50.537Z,9.25
2023-02-06T00:13:16.975Z,7.28
2023-02-06T00:15:43.716Z,8.30
2023-02-06T00:18:10.437Z,8.38
2023-02-06T00:20:37.361Z,8.27
2023-02-06T00:23:04.156Z,7.57
2023-02-06T00:25:30.593Z,8.45
2023-02-06T00:27:57.376Z,11.27
2023-02-06T00:30:23.942Z,10.45
2023-02-06T00:32:50.465Z,11.82
2023-02-06T00:35:16.991Z,11.50
2023-02-06T00:37:43.453Z,8.65
2023-02-06T00:40:10.361Z,8.27
2023-02-06T00:42:36.845Z,8.63
2023-02-06T00:45:03.730Z,8.77
2023-02-06T00:47:30.210Z,10.25
2023-02-06T00:49:56.681Z,9.23
2023-02-06T00:52:23.141Z,9.27
2023-02-06T00:54:49.607Z,8.35
2023-02-06T00:57:16.069Z,8.00
2023-02-06T00:59:42.519Z,10.30
2023-02-06T01:02:09.347Z,10.30
2023-02-06T01:04:36.048Z,9.85
2023-02-06T01:07:02.631Z,9.00
2023-02-06T01:09:29.156Z,9.38
2023-02-06T01:11:55.671Z,8.43
2023-02-06T01:14:22.346Z,7.68
2023-02-06T01:16:48.799Z,8.23
2023-02-06T01:19:15.375Z,7.32
2023-02-06T01:21:41.832Z,7.72
2023-02-06T01:24:08.386Z,8.27
2023-02-06T01:26:34.932Z,9.25
2023-02-06T01:29:02.139Z,8.68
2023-02-06T01:31:31.150Z,8.00
2023-02-06T01:33:59.393Z,7.40
2023-02-06T01:36:26.910Z,7.72
2023-02-06T01:38:53.508Z,8.05
2023-02-06T01:41:22.690Z,8.45
2023-02-06T01:44:22.490Z,8.95
2023-02-06T01:46:52.295Z,10.82
2023-02-06T01:49:44.277Z,12.02
2023-02-06T01:52:21.626Z,11.50
2023-02-06T01:54:59.432Z,10.40
2023-02-06T01:57:27.265Z,11.65
2023-02-06T02:00:00.981Z,10.52
2023-02-06T02:02:29.077Z,10.38
2023-02-06T02:04:57.228Z,12.93
2023-02-06T02:07:27.335Z,10.30
2023-02-06T02:09:53.896Z,10.30
2023-02-06T02:12:20.865Z,9.60
2023-02-06T02:14:50.033Z,11.13
2023-02-06T02:17:49.910Z,11.27
2023-02-06T02:20:31.444Z,11.55
2023-02-06T02:23:13.389Z,12.63
2023-02-06T02:25:49.110Z,11.63
2023-02-06T02:28:24.788Z,9.77
2023-02-06T02:31:03.403Z,8.63
2023-02-06T02:33:48.709Z,10.65
2023-02-06T02:36:38.429Z,9.95
2023-02-06T02:39:35.692Z,8.35
2023-02-06T02:42:19.817Z,8.35
2023-02-06T02:44:46.257Z,8.77
2023-02-06T02:47:15.383Z,9.43
2023-02-06T02:49:44.860Z,10.75
2023-02-06T02:52:12.459Z,10.13
2023-02-06T02:54:39.014Z,10.95
2023-02-06T02:57:14.679Z,9.43
2023-02-06T02:59:45.918Z,10.80
2023-02-06T03:02:24.903Z,8.10
2023-02-06T03:05:01.695Z,8.50
2023-02-06T03:08:01.651Z,8.52
2023-02-06T03:10:34.288Z,8.07
2023-02-06T03:13:06.858Z,8.48
2023-02-06T03:15:49.014Z,7.85
2023-02-06T03:18:49.128Z,7.88
2023-02-06T03:21:19.596Z,8.13
2023-02-06T03:23:49.127Z,7.45
2023-02-06T03:26:19.933Z,7.28
2023-02-06T03:28:55.336Z,7.57
2023-02-06T03:31:39.969Z,7.38
2023-02-06T03:34:12.756Z,7.83
2023-02-06T03:36:39.520Z,8.18
2023-02-06T03:39:06.228Z,8.40
2023-02-06T03:41:36.902Z,8.13
2023-02-06T03:44:06.925Z,8.20
2023-02-06T03:46:36.679Z,7.90
2023-02-06T03:49:07.409Z,8.95
2023-02-06T03:51:40.897Z,8.80
2023-02-06T03:54:09.298Z,8.75
2023-02-06T03:56:44.588Z,9.85
2023-02-06T03:59:11.321Z,9.82
2023-02-06T04:01:45.301Z,8.80
2023-02-06T04:04:15.413Z,7.88
2023-02-06T04:06:42.507Z,8.20
2023-02-06T04:09:08.992Z,8.38
2023-02-06T04:11:35.465Z,9.63
2023-02-06T04:14:01.924Z,8.52
2023-02-06T04:16:28.815Z,9.88
2023-02-06T04:18:55.432Z,9.65
2023-02-06T04:21:21.985Z,9.90
2023-02-06T04:23:48.452Z,10.93
2023-02-06T04:26:14.938Z,11.25
2023-02-06T04:28:41.400Z,8.98
2023-02-06T04:31:07.989Z,8.65
2023-02-06T04:33:34.529Z,9.25
2023-02-06T04:36:00.991Z,8.77
2023-02-06T04:38:27.532Z,9.82
2023-02-06T04:40:54.002Z,10.48
2023-02-06T04:43:20.531Z,8.82
2023-02-06T04:45:47.001Z,10.02
2023-02-06T04:48:13.484Z,9.13
2023-02-06T04:50:39.960Z,10.00
2023-02-06T04:53:06.493Z,10.90
2023-02-06T04:55:35.288Z,12.13
2023-02-06T04:58:01.905Z,9.68
2023-02-06T05:00:28.340Z,9.63
2023-02-06T05:02:54.841Z,9.73
2023-02-06T05:05:21.346Z,9.77
2023-02-06T05:07:47.805Z,9.68
2023-02-06T05:10:15.035Z,11.77
2023-02-06T05:12:41.571Z,11.82
2023-02-06T05:15:08.817Z,12.48
2023-02-06T05:17:35.334Z,14.00
2023-02-06T05:20:01.912Z,14.93
2023-02-06T05:22:28.464Z,16.38
2023-02-06T05:24:54.991Z,11.52
2023-02-06T05:27:21.528Z,13.02
2023-02-06T05:29:48.087Z,13.73
2023-02-06T05:32:14.569Z,13.80
2023-02-06T05:34:41.133Z,13.95
2023-02-06T05:37:07.586Z,13.48
2023-02-06T05:39:34.075Z,13.68
2023-02-06T05:42:00.525Z,15.57
2023-02-06T05:44:27.067Z,13.90
2023-02-06T05:46:53.822Z,15.75
2023-02-06T05:49:20.544Z,14.13
2023-02-06T05:51:47.043Z,12.88
2023-02-06T05:54:15.319Z,14.07
2023-02-06T05:56:41.809Z,13.05
2023-02-06T05:59:08.374Z,16.10
2023-02-06T06:01:34.947Z,18.98
2023-02-06T06:04:01.455Z,17.20
2023-02-06T06:06:28.024Z,15.98
2023-02-06T06:08:54.534Z,16.65
2023-02-06T06:11:21.022Z,15.20
2023-02-06T06:13:47.555Z,15.40
2023-02-06T06:16:14.253Z,16.00
2023-02-06T06:18:40.814Z,16.77
2023-02-06T06:21:07.310Z,14.40
2023-02-06T06:23:33.838Z,15.65
2023-02-06T06:26:00.371Z,17.08
2023-02-06T06:28:26.960Z,16.35
2023-02-06T06:31:03.365Z,20.00
2023-02-06T06:33:29.890Z,22.42
2023-02-06T06:35:56.456Z,17.88
2023-02-06T06:38:23.288Z,18.83
2023-02-06T06:40:49.942Z,16.02
2023-02-06T06:43:16.414Z,17.48
2023-02-06T06:45:42.939Z,18.52
2023-02-06T06:48:09.857Z,17.42
2023-02-06T06:50:36.353Z,18.08
2023-02-06T06:53:02.873Z,17.85
2023-02-06T06:55:29.453Z,18.05
2023-02-06T06:57:55.895Z,16.70
2023-02-06T07:00:22.479Z,17.63
2023-02-06T07:02:49.148Z,16.42
2023-02-06T07:05:15.753Z,20.67
2023-02-06T07:07:42.243Z,17.50
2023-02-06T07:10:09.723Z,18.10
2023-02-06T07:12:36.305Z,17.50
2023-02-06T07:15:02.900Z,13.40
2023-02-06T07:17:29.367Z,13.35
2023-02-06T07:19:55.910Z,14.25
2023-02-06T07:22:22.702Z,12.68
2023-02-06T07:24:49.269Z,14.02
2023-02-06T07:27:15.777Z,13.55
2023-02-06T07:29:42.356Z,12.82
2023-02-06T07:32:09.400Z,13.88
2023-02-06T07:34:36.195Z,13.93
2023-02-06T07:37:03.706Z,15.10
2023-02-06T07:39:30.549Z,15.35
2023-02-06T07:41:57.033Z,17.20
2023-02-06T07:44:23.478Z,15.35
2023-02-06T07:46:51.983Z,17.05
2023-02-06T07:49:18.688Z,15.68
2023-02-06T07:51:46.138Z,15.48
2023-02-06T07:54:12.982Z,17.95
2023-02-06T07:56:39.784Z,17.17
2023-02-06T07:59:06.807Z,17.40
2023-02-06T08:01:33.578Z,16.60
2023-02-06T08:04:00.062Z,16.55
2023-02-06T08:06:26.724Z,15.40
2023-02-06T08:08:56.393Z,15.05
2023-02-06T08:11:30.044Z,15.35
2023-02-06T08:13:57.276Z,16.75
2023-02-06T08:16:24.984Z,16.42
2023-02-06T08:18:51.935Z,18.02
2023-02-06T08:21:21.577Z,18.80
2023-02-06T08:23:53.612Z,15.55
2023-02-06T08:26:21.721Z,15.40
2023-02-06T08:28:50.008Z,16.85
2023-02-06T08:31:29.593Z,19.48
2023-02-06T08:33:56.551Z,18.38
2023-02-06T08:36:24.339Z,19.23
2023-02-06T08:38:51.498Z,23.38
2023-02-06T08:41:24.628Z,20.70
2023-02-06T08:43:53.290Z,21.75
2023-02-06T08:46:21.809Z,21.30
2023-02-06T08:48:48.438Z,23.25
2023-02-06T08:51:15.509Z,19.23
2023-02-06T08:53:42.133Z,21.45
2023-02-06T08:56:10.854Z,20.38
2023-02-06T08:58:38.645Z,20.85
2023-02-06T09:01:10.336Z,19.08
2023-02-06T09:03:37.137Z,18.67
2023-02-06T09:06:09.914Z,18.58
2023-02-06T09:08:38.120Z,17.92
2023-02-06T09:11:16.196Z,14.65
2023-02-06T09:13:44.363Z,17.50
2023-02-06T09:16:11.941Z,15.80
2023-02-06T09:18:38.817Z,16.40
2023-02-06T09:21:11.468Z,15.40
2023-02-06T09:23:44.044Z,17.55
2023-02-06T09:26:12.448Z,17.88
2023-02-06T09:28:39.446Z,16.33
2023-02-06T09:31:08.083Z,17.48
2023-02-06T09:33:34.976Z,17.50
2023-02-06T09:36:03.996Z,17.65
2023-02-06T09:38:30.651Z,19.15
2023-02-06T09:40:59.815Z,20.65
2023-02-06T09:43:26.597Z,16.85
2023-02-06T09:45:59.644Z,18.15
2023-02-06T09:48:29.003Z,16.15
2023-02-06T09:51:20.579Z,17.00
2023-02-06T09:54:05.551Z,18.50
2023-02-06T09:57:01.679Z,15.65
2023-02-06T09:59:39.180Z,14.52
2023-02-06T10:02:14.884Z,15.50
2023-02-06T10:04:52.919Z,15.07
2023-02-06T10:07:25.414Z,14.43
2023-02-06T10:10:06.713Z,14.38
2023-02-06T10:12:40.954Z,13.85
2023-02-06T10:15:17.476Z,14.40
2023-02-06T10:17:56.459Z,12.50
2023-02-06T10:20:32.516Z,14.77
2023-02-06T10:23:19.069Z,14.65
2023-02-06T10:25:51.631Z,13.98
2023-02-06T10:28:29.960Z,12.98
2023-02-06T10:31:17.738Z,13.60
2023-02-06T10:33:53.260Z,12.65
2023-02-06T10:36:41.130Z,12.52
2023-02-06T10:39:25.972Z,14.50
2023-02-06T10:42:00.520Z,13.65
2023-02-06T10:44:51.300Z,13.27
2023-02-06T10:47:42.449Z,12.65
2023-02-06T10:50:42.171Z,13.38
2023-02-06T10:53:17.700Z,11.13
2023-02-06T10:55:59.351Z,11.20
2023-02-06T10:58:31.242Z,20.15
2023-02-06T11:01:00.145Z,15.95
2023-02-06T11:03:31.879Z,14.40
2023-02-06T11:06:01.359Z,15.60
2023-02-06T11:08:36.955Z,13.80
2023-02-06T11:11:30.860Z,12.55
2023-02-06T11:14:19.158Z,14.43
2023-02-06T11:16:47.087Z,11.60
2023-02-06T11:19:25.378Z,12.55
2023-02-06T11:22:12.581Z,12.35
2023-02-06T11:24:57.295Z,12.73
2023-02-06T11:27:23.910Z,13.50
2023-02-06T11:29:52.145Z,14.63
2023-02-06T11:32:36.496Z,14.10
2023-02-06T11:35:07.993Z,14.25
2023-02-06T11:37:36.279Z,8.43
2023-02-06T11:40:15.145Z,13.45
2023-02-06T11:42:41.778Z,12.90
2023-02-06T11:45:29.968Z,15.95
2023-02-06T11:47:57.230Z,16.70
2023-02-06T11:50:30.040Z,15.43
2023-02-06T11:53:16.855Z,14.82
2023-02-06T11:55:45.731Z,15.27
2023-02-06T11:58:12.173Z,17.45
2023-02-06T12:01:02.752Z,16.35
2023-02-06T12:03:49.501Z,18.80
2023-02-06T12:06:21.877Z,17.83
2023-02-06T12:08:50.897Z,14.52
2023-02-06T12:11:34.620Z,12.55
2023-02-06T12:14:04.589Z,13.00
2023-02-06T12:16:35.712Z,13.82
2023-02-06T12:19:03.228Z,14.38
2023-02-06T12:21:48.158Z,14.27
2023-02-06T12:24:37.585Z,11.38
2023-02-06T12:27:27.668Z,11.55
2023-02-06T12:30:06.320Z,10.90
2023-02-06T12:32:40.816Z,11.95
2023-02-06T12:35:31.612Z,12.50
2023-02-06T12:38:08.117Z,13.50
2023-02-06T12:40:41.938Z,13.15
2023-02-06T12:43:13.963Z,10.32
2023-02-06T12:45:50.179Z,10.10
2023-02-06T12:48:35.250Z,13.38
2023-02-06T12:51:12.864Z,10.85
2023-02-06T12:53:42.350Z,10.63
2023-02-06T12:56:21.912Z,11.88
2023-02-06T12:59:06.822Z,12.07
2023-02-06T13:01:49.140Z,12.30
2023-02-06T13:04:23.750Z,11.63
2023-02-06T13:06:56.138Z,11.93
2023-02-06T13:09:30.957Z,12.63
2023-02-06T13:12:22.550Z,15.05
2023-02-06T13:14:52.986Z,15.13
2023-02-06T13:17:26.552Z,13.43
2023-02-06T13:20:09.026Z,15.75
2023-02-06T13:22:47.366Z,15.77
2023-02-06T13:25:25.905Z,16.50
2023-02-06T13:27:54.483Z,17.48
2023-02-06T13:30:23.957Z,19.13
2023-02-06T13:32:51.310Z,19.30
2023-02-06T13:35:22.720Z,19.45
2023-02-06T13:37:51.326Z,23.60
2023-02-06T13:40:21.049Z,22.42
2023-02-06T13:42:57.037Z,26.05
2023-02-06T13:45:41.604Z,28.02
2023-02-06T13:48:27.311Z,29.95
2023-02-06T13:54:00.146Z,26.77
2023-02-06T13:56:41.869Z,24.85
2023-02-06T13:59:19.649Z,26.83
2023-02-06T14:01:46.643Z,25.23
2023-02-06T14:04:24.794Z,25.90
2023-02-06T14:07:29.318Z,24.42
2023-02-06T14:10:05.213Z,22.80
2023-02-06T14:12:34.909Z,25.08
2023-02-06T14:15:16.910Z,22.45
2023-02-06T14:18:18.136Z,27.13
2023-02-06T14:21:12.558Z,22.75
2023-02-06T14:24:16.370Z,24.20
2023-02-06T14:27:01.390Z,23.85
2023-02-06T14:29:36.839Z,23.55
2023-02-06T14:32:06.285Z,19.80
2023-02-06T14:35:04.473Z,18.40
2023-02-06T14:38:07.770Z,19.90
2023-02-06T14:40:39.609Z,17.05
2023-02-06T14:43:11.678Z,15.45
2023-02-06T14:45:42.831Z,15.93
2023-02-06T14:48:26.108Z,14.13
2023-02-06T14:50:56.630Z,12.50
2023-02-06T14:53:28.636Z,13.50
2023-02-06T14:56:24.281Z,15.35
2023-02-06T14:58:51.401Z,12.18
2023-02-06T15:01:17.845Z,12.57
2023-02-06T15:03:46.331Z,11.52
2023-02-06T15:06:16.589Z,11.38
2023-02-06T15:08:49.950Z,13.23
2023-02-06T15:11:21.221Z,11.98
2023-02-06T15:13:56.376Z,12.70
2023-02-06T15:16:23.204Z,10.88
2023-02-06T15:18:49.857Z,10.68
2023-02-06T15:21:18.847Z,10.40
2023-02-06T15:23:55.634Z,11.20
2023-02-06T15:26:35.483Z,9.75
2023-02-06T15:29:04.911Z,9.75
2023-02-06T15:31:32.223Z,9.75
2023-02-06T15:34:00.965Z,10.23
2023-02-06T15:36:35.905Z,10.68
2023-02-06T15:39:06.342Z,9.80
2023-02-06T15:41:34.348Z,9.05
2023-02-06T15:44:06.587Z,9.63
2023-02-06T15:46:33.457Z,10.00
2023-02-06T15:49:00.018Z,9.05
2023-02-06T15:51:39.310Z,9.20
2023-02-06T15:54:20.253Z,9.80
2023-02-06T15:57:00.981Z,10.00
2023-02-06T15:59:27.888Z,10.38
2023-02-06T16:01:56.887Z,11.30
2023-02-06T16:04:38.006Z,10.50
2023-02-06T16:07:07.481Z,10.43
2023-02-06T16:09:41.886Z,11.20
2023-02-06T16:12:09.644Z,9.43
2023-02-06T16:14:41.948Z,11.60
2023-02-06T16:17:08.362Z,14.93
2023-02-06T16:19:40.950Z,13.48
2023-02-06T16:22:23.585Z,13.65
2023-02-06T16:24:52.142Z,16.73
2023-02-06T16:27:25.709Z,17.58
2023-02-06T16:29:55.691Z,12.00
2023-02-06T16:32:24.550Z,14.63
2023-02-06T16:34:51.918Z,13.68
2023-02-06T16:37:21.722Z,21.65
2023-02-06T16:39:48.703Z,22.13
2023-02-06T16:42:21.846Z,14.68
2023-02-06T16:44:51.459Z,13.75
2023-02-06T16:47:20.433Z,12.18
2023-02-06T16:49:50.964Z,12.75
2023-02-06T16:52:30.039Z,13.40
2023-02-06T16:55:00.631Z,12.88
2023-02-06T16:57:36.364Z,15.82
2023-02-06T17:00:20.270Z,11.90
2023-02-06T17:02:48.058Z,13.52
2023-02-06T17:05:15.692Z,14.52
2023-02-06T17:07:43.035Z,16.67
2023-02-06T17:10:12.248Z,22.33
2023-02-06T17:12:39.243Z,27.73
2023-02-06T17:15:06.276Z,22.15
2023-02-06T17:17:32.877Z,21.83
2023-02-06T17:19:59.465Z,16.83
2023-02-06T17:22:26.048Z,16.83
2023-02-06T17:24:52.556Z,17.20
2023-02-06T17:27:21.526Z,14.25
2023-02-06T17:29:48.556Z,15.82
2023-02-06T17:32:16.204Z,16.08
2023-02-06T17:34:42.989Z,16.08
2023-02-06T17:37:20.505Z,16.27
2023-02-06T17:39:49.340Z,13.73
2023-02-06T17:42:15.990Z,15.02
2023-02-06T17:44:42.810Z,15.32
2023-02-06T17:47:09.837Z,15.55
2023-02-06T17:49:36.489Z,16.00
2023-02-06T17:52:03.513Z,14.75
2023-02-06T17:54:30.033Z,14.00
2023-02-06T17:56:56.524Z,14.00
2023-02-06T17:59:23.048Z,13.80
2023-02-06T18:01:49.590Z,15.50
2023-02-06T18:04:19.599Z,17.25
2023-02-06T18:06:46.093Z,14.88
2023-02-06T18:09:12.787Z,10.80
2023-02-06T18:11:39.453Z,12.63
2023-02-06T18:14:05.909Z,13.00
2023-02-06T18:16:32.394Z,13.48
2023-02-06T18:19:02.295Z,18.05
2023-02-06T18:21:30.826Z,21.70
2023-02-06T18:23:57.991Z,15.10
2023-02-06T18:26:24.670Z,16.98
2023-02-06T18:28:51.300Z,15.75
2023-02-06T18:31:21.584Z,14.40
2023-02-06T18:33:48.084Z,18.30
2023-02-06T18:36:14.609Z,17.50
2023-02-06T18:38:41.477Z,29.10
2023-02-06T18:41:28.031Z,18.45
2023-02-06T18:43:54.762Z,17.50
2023-02-06T18:46:21.266Z,23.45
2023-02-06T18:48:47.832Z,22.58
2023-02-06T18:51:14.362Z,21.77
2023-02-06T18:53:40.843Z,23.48
2023-02-06T18:56:07.352Z,23.05
2023-02-06T18:58:33.865Z,25.08
2023-02-06T19:01:00.379Z,32.45
2023-02-06T19:03:26.946Z,29.15
2023-02-06T19:05:53.505Z,27.77
2023-02-06T19:08:19.968Z,24.52
2023-02-06T19:10:46.449Z,25.40
2023-02-06T19:13:12.946Z,23.48
2023-02-06T19:15:39.370Z,22.33
2023-02-06T19:18:07.511Z,19.92
2023-02-06T19:20:33.940Z,19.45
2023-02-06T19:23:00.385Z,22.08
2023-02-06T19:25:27.041Z,20.77
2023-02-06T19:27:55.102Z,20.25
2023-02-06T19:30:21.718Z,19.85
2023-02-06T19:32:48.735Z,20.40
2023-02-06T19:35:15.484Z,21.33
2023-02-06T19:37:41.993Z,21.73
2023-02-06T19:40:08.969Z,23.20
2023-02-06T19:42:35.495Z,22.15
2023-02-06T19:45:02.940Z,23.65
2023-02-06T19:47:29.405Z,22.05
2023-02-06T19:49:55.998Z,26.80
2023-02-06T19:52:22.525Z,26.30
2023-02-06T19:54:49.057Z,24.83
2023-02-06T19:57:16.037Z,21.75
2023-02-06T19:59:42.629Z,22.48
2023-02-06T20:02:12.708Z,20.88
2023-02-06T20:04:39.821Z,21.30
2023-02-06T20:07:06.482Z,22.50
2023-02-06T20:09:33.210Z,22.08
2023-02-06T20:11:59.954Z,22.13
2023-02-06T20:14:27.104Z,23.23
2023-02-06T20:16:53.734Z,21.55
2023-02-06T20:19:27.108Z,23.85
2023-02-06T20:21:59.623Z,23.80
2023-02-06T20:24:30.222Z,23.00
2023-02-06T20:27:00.241Z,28.38
2023-02-06T20:29:33.173Z,22.30
2023-02-06T20:32:00.238Z,25.30
2023-02-06T20:34:27.601Z,26.33
2023-02-06T20:36:56.094Z,29.25
2023-02-06T20:39:23.517Z,29.58
2023-02-06T20:41:50.800Z,30.30
2023-02-06T20:44:18.286Z,27.30
2023-02-06T20:46:44.800Z,27.55
2023-02-06T20:49:20.693Z,28.17
2023-02-06T20:51:49.051Z,28.52
2023-02-06T20:54:16.357Z,23.63
2023-02-06T20:56:43.009Z,26.10
2023-02-06T20:59:13.319Z,26.63
2023-02-06T21:01:40.716Z,25.70
2023-02-06T21:04:09.263Z,24.80
2023-02-06T21:06:37.456Z,20.00
2023-02-06T21:09:05.790Z,21.45
2023-02-06T21:11:34.837Z,18.33
2023-02-06T21:14:04.293Z,21.38
2023-02-06T21:16:31.864Z,18.05
2023-02-06T21:18:59.066Z,19.75
2023-02-06T21:21:26.279Z,21.58
2023-02-06T21:23:55.870Z,19.30
2023-02-06T21:26:23.762Z,18.83
2023-02-06T21:28:50.933Z,19.17
2023-02-06T21:31:21.989Z,18.05
2023-02-06T21:33:49.896Z,17.77
2023-02-06T21:36:16.463Z,18.27
2023-02-06T21:38:43.953Z,17.45
2023-02-06T21:41:14.134Z,18.67
2023-02-06T21:43:41.066Z,18.40
2023-02-06T21:46:07.873Z,19.33
2023-02-06T21:48:35.522Z,21.58
2023-02-06T21:51:09.847Z,21.35
2023-02-06T21:53:36.579Z,21.67
2023-02-06T21:56:08.036Z,19.73
2023-02-06T21:58:35.680Z,19.20
2023-02-06T22:01:02.432Z,17.15
2023-02-06T22:03:29.185Z,17.92
2023-02-06T22:05:55.641Z,18.88
2023-02-06T22:08:22.181Z,18.35
2023-02-06T22:10:48.681Z,17.27
2023-02-06T22:13:15.138Z,20.50
2023-02-06T22:15:51.275Z,16.88
2023-02-06T22:18:17.925Z,18.48
2023-02-06T22:20:44.427Z,18.95
2023-02-06T22:23:10.919Z,16.38
2023-02-06T22:25:37.614Z,19.38
2023-02-06T22:28:04.263Z,15.98
2023-02-06T22:30:30.803Z,16.98
2023-02-06T22:32:57.271Z,17.25
2023-02-06T22:35:23.722Z,17.88
2023-02-06T22:37:50.227Z,17.70
2023-02-06T22:40:16.981Z,16.48
2023-02-06T22:42:43.456Z,17.55
2023-02-06T22:45:10.238Z,18.45
2023-02-06T22:47:36.848Z,19.90
2023-02-06T22:50:03.471Z,18.73
2023-02-06T22:52:48.678Z,19.10
2023-02-06T22:55:15.168Z,17.85
2023-02-06T22:57:41.713Z,19.25
2023-02-06T23:00:11.587Z,19.35
2023-02-06T23:02:38.962Z,19.00
2023-02-06T23:05:06.146Z,19.77
2023-02-06T23:07:32.623Z,19.13
2023-02-06T23:09:59.110Z,17.95
2023-02-06T23:12:25.662Z,17.90
2023-02-06T23:14:52.165Z,19.92
2023-02-06T23:17:18.706Z,20.83
2023-02-06T23:19:45.280Z,20.38
2023-02-06T23:22:12.776Z,20.88
2023-02-06T23:24:39.281Z,21.50
2023-02-06T23:27:05.776Z,20.63
2023-02-06T23:29:32.333Z,19.92
2023-02-06T23:31:58.786Z,21.35
2023-02-06T23:34:25.847Z,20.52
2023-02-06T23:36:52.849Z,22.33
2023-02-06T23:39:19.340Z,21.33
2023-02-06T23:41:46.093Z,22.00
2023-02-06T23:44:12.742Z,21.50
2023-02-06T23:46:40.340Z,20.52
2023-02-06T23:49:07.602Z,20.45
2023-02-06T23:51:35.124Z,21.13
2023-02-06T23:54:01.816Z,20.63
2023-02-06T23:56:30.891Z,20.80
2023-02-06T23:58:59.596Z,20.80
